Aviation Digital Data Service (ADDS)

Output produced by TAFs form (0719 UTC 02 March 2015)
found at http://aviationweather.gov/adds/tafs/
 
KTCS 020526Z 0206/0306 23008KT P6SM VCSH FEW060 BKN120 BKN220 
     FM021200 19010KT P6SM VCSH BKN060 BKN100 OVC200 
     FM021800 21015G25KT P6SM -SHRA BKN040 OVC100 
     PROB30 0300/0306 24014G24KT 6SM -SHRA BKN030 OVC080